Putnm, Connecticut
Current Conditions -  °F | °C
As of 7:52 PM on Friday 19 Dec 2014 (Local Time) from KIJD Reporting Station
Overcast Overcast  
Wind Chill: 26°   Ceiling: 3200
Heat Index: 32°   Visibility: 10mi
Dew Point: 21°   Wind: 6mph
Humidity: 64%   Direction: 320°NW
Pressure: 30.1"   Gusts: NA
Location:  41.91°N, 71.8739°W
Report Text: KIJD 200052Z AUTO 32005KT 10SM OVC032 00/M06 A3010 RMK AO2 SLP194 T00001061
Loading
Personal Weather Stations






























Interactive Weather Map New forecast layout! Learn more

10-Day Weather Forecast

Advertisements
Track Severe Weather on mobile